Airfield :
LOGIN :

Register | Disclaimer

   EN    FR    IT 

 










Legend :    VFR   Marginal VFR   IFR   Intensive IFR   Very Intensive IFR
Visi :
Ceiling :
>= 8 km
>= 3000ft
5 to 8 km
1000 to 3000 ft
1500m to 5 km
500 to 1000 ft
800 to 1500m
200 to 500 ft
< 800m
< 200 ft
Symbols :   Thunderstorms  Fog  Heavy snow  Heavy precipitations  Wind > 20 kt
SIGMETs :     Misc.  Thunderstorms  Icing  Turbulence  Mountain Waves  Volcanic Ashes






- Airport Elevation : 209 ft
- IATA code : CLY


LFKC - Calvi

CURRENT METAR :
  • 241830Z AUTO 18007KT CAVOK 07/03 Q1005 NOSIG

EXPIRED METARs :
  • 241800Z AUTO 18006KT CAVOK 06/03 Q1004 NOSIG
  • 241730Z AUTO 19005KT CAVOK 07/04 Q1004 NOSIG
  • 241700Z AUTO 21005KT 9999 FEW100 07/05 Q1003 NOSIG
  • 241630Z AUTO 18005KT 9999 SCT100 09/06 Q1003 NOSIG

TAF TAF LFKC
Valid from the 24 at 15:00 until the 25 at 15:00 UTC


241400Z 2415/2515 16005KT 9999 SCT040 TX13/2512Z TN07/2418Z
BECMG 2420/2422 22010G20KT
BECMG 2423/2501 22015G30KT
TEMPO 2502/2505 SHRA BKN025 FEW035CB
ATIS : +33 4 95 65 82 49



MET'MAP, your aeronautical weather chart ! - Copyright ORBIFLY December 2007 - Disclaimer

ORBIFLY MET'MAP TEAM :

Programming & Development : Alexandra Zaïnal
Concept & original design : Baudouin d'Aumeries
Assistance for programming : Marc-Olivier Méhu
Technical & hardware support : Manuel Goepfert

Contact : metmap@orbifly.com




SOURCES & CREDITS :

   NOAA